Mitu, Fabio Alberto León Bentley Airport (SKMU)

NameFabio Alberto León Bentley Airport
CityMitu
CountryColombia
ICAOSKMU
IATAMVP
Altitude207 m
CoordinatesGoogle Map
Live Air TrafficLiveATC.net
METARSKMU 141800Z 30005KT 9999 SCT020 29/23 A3000
2019-09-14 18:00:00 Wind: West-Northwest (300°) 2.57 m/s - Visibility: > 10000 m - Temperature: 29 °C - Dew point: 23 °C - Humidity: 70.1% - Pressure: 1015.92 hPa
Statistics

The table below shows the detailed information of all flights to/from Mitu, Fabio Alberto León Bentley Airport (SKMU).